Terminal Aerodrome Forecast
Issued by NWS

Home | Current Version | Previous Version | Graphics & Text | Print | Product List | Glossary On
Versions: 1 2 3 4 5 6 7 8 9 10 11 12 13 14 15 16 17 18 19 20 21 22 23 24 25 26 27 28 29 30 31 32 33 34
000
FTUS45 KGGW 291900 AAA
TAFOLF
TAF AMD
KOLF 291917Z 2919/3018 VRB06KT 6SM BR FEW002
     FM300900 00000KT P6SM SCT180
     FM301200 28007KT P6SM FEW003 SCT240=

USA.gov is the U.S. government's official web portal to all federal, state and local government web resources and services.